Time;durP1;ratioP1;P1;durP2;ratioP2;P2;SDS_P1;SDS_P2;PMS_P1;PMS_P2;Temp;Humidity;BMP_temperature;BMP_pressure;BME280_temperature;BME280_humidity;BME280_pressure;Samples;Min_cycle;Max_cycle;Signal;HPM_P1;HPM_P2
2023/12/29 05:01:20;;;;;;;0.90;0.80;;;8.50;97.30;;;;;;5676461;23;20507;-89
2023/12/29 05:03:45;;;;;;;4.20;1.60;;;8.40;97.30;;;;;;5005965;28;20433;-95
2023/12/29 05:06:11;;;;;;;1.17;0.87;;;8.60;97.30;;;;;;5030499;28;20208;-90
2023/12/29 05:08:36;;;;;;;0.90;0.80;;;8.60;97.30;;;;;;5018178;28;20219;-91
2023/12/29 05:11:07;;;;;;;1.07;0.93;;;8.60;97.30;;;;;;5000923;28;20351;-90
2023/12/29 05:13:33;;;;;;;1.20;1.10;;;8.70;97.30;;;;;;5017869;28;20482;-91
2023/12/29 05:15:58;;;;;;;0.90;0.80;;;8.70;97.30;;;;;;5024114;28;20407;-91
2023/12/29 05:18:26;;;;;;;1.00;0.90;;;8.70;97.30;;;;;;5018567;28;20560;-91
2023/12/29 05:20:53;;;;;;;0.90;0.80;;;8.80;97.30;;;;;;5018477;28;20201;-91
2023/12/29 05:23:18;;;;;;;1.07;0.97;;;8.70;97.30;;;;;;5033442;28;20414;-90
2023/12/29 05:25:44;;;;;;;1.10;1.00;;;8.70;97.30;;;;;;5036408;28;20454;-91
2023/12/29 05:28:09;;;;;;;1.00;0.90;;;8.70;97.30;;;;;;5033362;28;20185;-91
2023/12/29 05:30:34;;;;;;;1.13;1.07;;;8.70;97.30;;;;;;5008792;28;20192;-92
2023/12/29 05:33:00;;;;;;;0.90;0.80;;;8.60;97.30;;;;;;5015763;28;20170;-91
2023/12/29 05:35:25;;;;;;;1.20;1.10;;;8.60;97.30;;;;;;5019309;28;20656;-92
2023/12/29 05:37:51;;;;;;;1.10;1.00;;;8.60;97.30;;;;;;5022333;28;20177;-90
2023/12/29 05:40:16;;;;;;;1.03;0.93;;;8.60;97.30;;;;;;5016461;28;20241;-92
2023/12/29 05:42:42;;;;;;;0.83;0.73;;;8.70;97.30;;;;;;5026242;28;20213;-95
2023/12/29 05:45:08;;;;;;;1.10;1.00;;;8.70;97.30;;;;;;5030179;28;20177;-94
2023/12/29 05:47:36;;;;;;;0.90;0.80;;;8.70;97.30;;;;;;5019640;28;20205;-93
2023/12/29 05:50:02;;;;;;;1.10;1.00;;;8.70;97.30;;;;;;5027062;28;20430;-91
2023/12/29 05:52:28;;;;;;;1.00;0.90;;;8.70;97.30;;;;;;5025347;28;20448;-92
2023/12/29 05:54:54;;;;;;;1.33;1.23;;;8.70;97.30;;;;;;5036521;28;20480;-93
2023/12/29 05:57:19;;;;;;;0.90;0.80;;;8.80;97.30;;;;;;5029304;28;20426;-90
2023/12/29 05:59:45;;;;;;;0.93;0.83;;;8.80;97.30;;;;;;5036341;28;20177;-94
2023/12/29 06:02:10;;;;;;;0.90;0.80;;;8.80;97.30;;;;;;5037168;28;20236;-91
2023/12/29 06:04:38;;;;;;;1.07;0.97;;;8.80;97.30;;;;;;5032009;28;20634;-94
2023/12/29 06:07:06;;;;;;;1.13;0.97;;;8.80;97.30;;;;;;5031485;28;20228;-91
2023/12/29 06:09:31;;;;;;;1.10;1.00;;;8.80;97.30;;;;;;5019650;28;20507;-93
2023/12/29 06:11:57;;;;;;;1.00;0.90;;;8.80;97.30;;;;;;5026651;28;21000;-92
2023/12/29 06:14:22;;;;;;;1.00;1.00;;;8.80;97.30;;;;;;5024905;28;20188;-92
2023/12/29 06:16:48;;;;;;;1.00;0.90;;;8.90;97.30;;;;;;5023504;28;20246;-93
2023/12/29 06:19:16;;;;;;;1.37;1.27;;;8.90;97.30;;;;;;5040324;28;20183;-93
2023/12/29 06:21:47;;;;;;;1.20;1.10;;;8.90;97.30;;;;;;5028100;28;20275;-91
2023/12/29 06:24:13;;;;;;;1.20;1.10;;;8.90;97.30;;;;;;5033246;28;20426;-91
2023/12/29 06:26:42;;;;;;;1.10;1.00;;;8.90;97.30;;;;;;5019286;28;20460;-91
2023/12/29 06:29:08;;;;;;;1.20;1.10;;;8.90;97.30;;;;;;5017861;28;20192;-91
2023/12/29 06:31:41;;;;;;;1.37;1.00;;;8.90;97.30;;;;;;5036075;28;20447;-92
2023/12/29 06:34:06;;;;;;;1.27;1.17;;;8.90;97.30;;;;;;5022918;28;20435;-93
2023/12/29 06:36:32;;;;;;;1.30;1.20;;;9.00;97.30;;;;;;5031003;28;20419;-93
2023/12/29 06:38:58;;;;;;;1.30;1.20;;;9.00;97.30;;;;;;5018857;28;20193;-92
2023/12/29 06:41:24;;;;;;;1.00;0.90;;;9.00;97.30;;;;;;5025636;28;20231;-93
2023/12/29 06:43:50;;;;;;;1.03;0.93;;;9.00;97.30;;;;;;5031343;28;20172;-93
2023/12/29 06:46:18;;;;;;;0.90;0.80;;;9.00;97.30;;;;;;5041799;28;20463;-92
2023/12/29 06:48:50;;;;;;;2.70;1.43;;;9.00;97.30;;;;;;5033756;28;20198;-92
2023/12/29 06:51:18;;;;;;;1.00;0.90;;;9.00;97.30;;;;;;5035208;28;20444;-89
2023/12/29 06:53:43;;;;;;;0.90;0.80;;;9.00;97.30;;;;;;5030937;28;20434;-92
2023/12/29 06:56:16;;;;;;;1.00;0.90;;;9.00;97.30;;;;;;5040461;28;20456;-91
2023/12/29 06:58:42;;;;;;;1.20;1.10;;;9.10;97.30;;;;;;5036933;28;20315;-91
2023/12/29 07:01:07;;;;;;;1.23;1.13;;;9.20;97.30;;;;;;5029772;28;20479;-93
2023/12/29 07:03:35;;;;;;;1.00;0.90;;;9.20;97.30;;;;;;5033862;28;20299;-91
2023/12/29 07:06:06;;;;;;;1.23;1.13;;;9.30;97.30;;;;;;5022270;28;20216;-91
2023/12/29 07:08:32;;;;;;;1.00;0.90;;;9.30;97.30;;;;;;5035823;28;20491;-92
2023/12/29 07:10:58;;;;;;;0.90;0.80;;;9.30;97.30;;;;;;5027695;28;20451;-93
2023/12/29 07:13:26;;;;;;;1.17;1.03;;;9.40;97.30;;;;;;5028175;28;20196;-94
2023/12/29 07:15:57;;;;;;;1.03;0.93;;;9.50;97.30;;;;;;5021491;28;20452;-92
2023/12/29 07:18:30;;;;;;;1.10;1.00;;;9.50;97.30;;;;;;5020664;28;20432;-91
2023/12/29 07:20:58;;;;;;;0.90;0.80;;;9.50;97.30;;;;;;5014755;28;20496;-93
2023/12/29 07:23:23;;;;;;;0.90;0.80;;;9.60;97.30;;;;;;5030166;28;20501;-93
2023/12/29 07:25:49;;;;;;;2.20;1.00;;;9.60;97.30;;;;;;5036485;28;20463;-93
2023/12/29 07:28:18;;;;;;;0.90;0.80;;;9.60;97.30;;;;;;5034760;28;20169;-92
2023/12/29 07:30:50;;;;;;;0.90;0.80;;;9.60;97.30;;;;;;5043957;28;20204;-92
2023/12/29 07:33:16;;;;;;;0.83;0.73;;;9.60;97.30;;;;;;5024802;28;20424;-91
2023/12/29 07:35:41;;;;;;;0.93;0.83;;;9.60;97.30;;;;;;5024804;28;20451;-92
2023/12/29 07:38:07;;;;;;;1.27;1.20;;;9.60;97.30;;;;;;5030355;28;20647;-92
2023/12/29 07:40:32;;;;;;;1.00;0.90;;;9.60;97.30;;;;;;5030791;28;20381;-91
2023/12/29 07:42:58;;;;;;;1.07;0.97;;;9.60;97.30;;;;;;5023544;28;20196;-91
2023/12/29 07:45:24;;;;;;;1.47;1.37;;;9.60;97.30;;;;;;5031711;28;20177;-92
2023/12/29 07:47:50;;;;;;;0.87;0.77;;;9.60;97.30;;;;;;5036971;28;20196;-91
2023/12/29 07:50:18;;;;;;;1.00;0.90;;;9.60;97.30;;;;;;5029889;28;20420;-91
2023/12/29 07:52:47;;;;;;;1.00;0.90;;;9.50;97.30;;;;;;5047364;28;20252;-94
2023/12/29 07:55:18;;;;;;;1.00;0.90;;;9.50;97.30;;;;;;5030649;28;20459;-93
2023/12/29 07:57:46;;;;;;;1.30;1.20;;;9.50;97.30;;;;;;5035626;28;20477;-92
2023/12/29 08:00:14;;;;;;;0.90;0.80;;;9.50;97.30;;;;;;5028458;28;20416;-91
2023/12/29 08:02:39;;;;;;;1.20;1.10;;;9.50;97.30;;;;;;5037949;28;20470;-91
2023/12/29 08:05:10;;;;;;;1.10;1.00;;;9.60;97.30;;;;;;5027707;28;20433;-92
2023/12/29 08:07:39;;;;;;;1.00;0.90;;;9.60;97.30;;;;;;5032718;28;20280;-92
2023/12/29 08:10:06;;;;;;;1.90;1.47;;;9.60;97.30;;;;;;5034333;28;20494;-92
2023/12/29 08:12:33;;;;;;;1.73;1.00;;;9.60;97.30;;;;;;5030564;28;20476;-93
2023/12/29 08:14:59;;;;;;;1.23;1.13;;;9.60;97.30;;;;;;5028366;28;20740;-92
2023/12/29 08:17:27;;;;;;;0.97;0.87;;;9.60;97.30;;;;;;5029513;28;21010;-91
2023/12/29 08:19:52;;;;;;;6.70;1.20;;;9.60;97.30;;;;;;5022113;28;20435;-92
2023/12/29 08:22:19;;;;;;;1.13;1.03;;;9.60;97.30;;;;;;5029513;28;20443;-92
2023/12/29 08:24:45;;;;;;;1.10;1.00;;;9.70;97.30;;;;;;5038863;28;20184;-91
2023/12/29 08:27:12;;;;;;;1.00;0.90;;;9.70;97.30;;;;;;5039225;28;20535;-92
2023/12/29 08:29:38;;;;;;;0.90;0.80;;;9.70;97.30;;;;;;5032193;28;20279;-92
2023/12/29 08:32:04;;;;;;;1.10;1.00;;;9.80;97.30;;;;;;5027745;28;20516;-90
2023/12/29 08:34:29;;;;;;;1.33;1.23;;;9.80;97.30;;;;;;5017221;28;20182;-92
2023/12/29 08:36:55;;;;;;;0.90;0.80;;;9.80;97.30;;;;;;5020117;28;20191;-92
2023/12/29 08:39:20;;;;;;;0.90;0.80;;;9.80;97.30;;;;;;5036951;28;20165;-94
2023/12/29 08:41:49;;;;;;;1.10;1.00;;;9.80;97.30;;;;;;5024177;28;20224;-91
2023/12/29 08:44:15;;;;;;;1.07;1.07;;;9.80;97.30;;;;;;5018405;28;20440;-95
2023/12/29 08:46:41;;;;;;;1.00;0.90;;;9.80;97.30;;;;;;5033408;28;20487;-95
2023/12/29 08:49:07;;;;;;;1.00;0.90;;;9.90;97.30;;;;;;5024184;28;20527;-94
2023/12/29 08:51:32;;;;;;;1.00;0.90;;;9.90;97.30;;;;;;5013293;28;20379;-95
2023/12/29 08:53:58;;;;;;;1.00;0.90;;;10.00;97.30;;;;;;5020643;28;20192;-92
2023/12/29 08:56:23;;;;;;;1.00;0.90;;;10.00;97.30;;;;;;5036699;28;20188;-95
2023/12/29 08:58:49;;;;;;;1.00;0.90;;;10.10;97.30;;;;;;5035717;28;20188;-93
2023/12/29 09:01:16;;;;;;;1.40;1.30;;;10.10;97.30;;;;;;5035708;28;20232;-94
2023/12/29 09:03:47;;;;;;;1.10;1.00;;;10.20;97.30;;;;;;5041572;28;20177;-96
2023/12/29 09:06:17;;;;;;;1.93;1.37;;;10.30;97.30;;;;;;5049172;28;20483;-95
2023/12/29 09:08:42;;;;;;;1.07;0.97;;;10.30;97.30;;;;;;5034937;28;20427;-96
2023/12/29 09:11:08;;;;;;;1.10;1.00;;;10.40;97.30;;;;;;5038561;28;20467;-94
2023/12/29 09:13:34;;;;;;;0.80;0.70;;;10.40;97.30;;;;;;5036931;28;20196;-94
2023/12/29 09:15:59;;;;;;;1.30;1.20;;;10.50;97.30;;;;;;5031961;28;20246;-92
2023/12/29 09:18:27;;;;;;;0.87;0.77;;;10.50;97.30;;;;;;5019630;28;20203;-94
2023/12/29 09:20:55;;;;;;;1.07;0.97;;;10.50;97.30;;;;;;5025882;28;20200;-94
2023/12/29 09:23:20;;;;;;;1.27;1.17;;;10.60;97.30;;;;;;5029497;28;20482;-94
2023/12/29 09:25:46;;;;;;;1.00;0.90;;;10.60;97.30;;;;;;5024310;28;20895;-93
2023/12/29 09:28:12;;;;;;;1.10;1.00;;;10.60;97.30;;;;;;5023838;28;20217;-93
2023/12/29 09:30:37;;;;;;;1.00;0.90;;;10.50;97.30;;;;;;5026459;28;20185;-95
2023/12/29 09:33:12;;;;;;;1.20;1.10;;;10.60;97.30;;;;;;5032018;28;20247;-94
2023/12/29 09:35:40;;;;;;;0.90;0.80;;;10.60;97.30;;;;;;5040048;28;20181;-96
2023/12/29 09:38:06;;;;;;;1.00;0.90;;;10.70;97.30;;;;;;5025320;28;20416;-96
2023/12/29 09:40:32;;;;;;;1.00;0.90;;;10.70;97.30;;;;;;5029271;28;20464;-95
2023/12/29 09:43:01;;;;;;;1.00;0.90;;;10.70;97.30;;;;;;5026802;28;20284;-95
2023/12/29 09:45:28;;;;;;;1.10;1.00;;;10.70;97.30;;;;;;5034678;28;20511;-93
2023/12/29 09:47:56;;;;;;;3.03;2.03;;;10.70;97.30;;;;;;5030826;28;20440;-94
2023/12/29 09:50:22;;;;;;;1.20;1.10;;;10.60;97.30;;;;;;5028110;28;20416;-95
2023/12/29 09:52:52;;;;;;;6.00;1.83;;;10.60;97.30;;;;;;5026127;28;20439;-92
2023/12/29 09:55:18;;;;;;;0.90;0.80;;;10.70;97.30;;;;;;5035635;28;20400;-92
2023/12/29 09:57:44;;;;;;;0.97;0.87;;;10.70;97.30;;;;;;5030714;28;20463;-92
2023/12/29 10:00:16;;;;;;;0.80;0.70;;;10.80;97.30;;;;;;5030950;28;20436;-92
2023/12/29 10:02:41;;;;;;;0.93;0.83;;;10.80;97.30;;;;;;5022084;28;20225;-93
2023/12/29 10:05:08;;;;;;;2.00;1.10;;;10.80;97.30;;;;;;5030628;28;20482;-93
2023/12/29 10:07:38;;;;;;;2.33;1.73;;;10.80;97.30;;;;;;5028348;28;20272;-92
2023/12/29 10:10:06;;;;;;;1.10;1.00;;;10.80;97.30;;;;;;5008167;28;20421;-95
2023/12/29 10:12:33;;;;;;;0.90;0.80;;;10.80;97.30;;;;;;5024074;28;20459;-94
2023/12/29 10:15:19;;;;;;;1.80;1.70;;;10.90;97.30;;;;;;5028783;28;21307;-95
2023/12/29 10:18:09;;;;;;;;;;;;;;;;;;;;;
2023/12/29 10:20:45;;;;;;;1.83;1.73;;;10.90;97.30;;;;;;5043468;28;20471;-92
2023/12/29 10:23:16;;;;;;;1.10;1.00;;;10.90;97.30;;;;;;5041825;28;20415;-95
2023/12/29 10:25:58;;;;;;;1.30;1.20;;;11.10;97.30;;;;;;5051970;28;20432;-94
2023/12/29 10:28:26;;;;;;;1.50;1.40;;;11.20;97.30;;;;;;5042397;28;20442;-95
2023/12/29 10:30:52;;;;;;;1.93;1.23;;;11.30;97.30;;;;;;5053162;28;20458;-93
2023/12/29 10:33:21;;;;;;;0.90;0.80;;;11.30;97.10;;;;;;5046569;28;20514;-94
2023/12/29 10:36:18;;;;;;;1.03;1.00;;;11.30;97.10;;;;;;5048045;28;20177;-91
2023/12/29 10:38:48;;;;;;;1.10;1.00;;;11.40;96.70;;;;;;5044391;28;20488;-94
2023/12/29 10:41:16;;;;;;;0.90;0.80;;;11.40;96.80;;;;;;5042137;28;20440;-92
2023/12/29 10:44:02;;;;;;;;;;;;;;;;;;;;;
2023/12/29 10:46:27;;;;;;;1.10;1.00;;;11.40;96.60;;;;;;5039313;28;20483;-95
2023/12/29 10:48:55;;;;;;;2.03;1.90;;;11.50;96.60;;;;;;5028787;28;20419;-95
2023/12/29 10:51:27;;;;;;;1.83;1.37;;;11.60;96.60;;;;;;5038173;28;20265;-95
2023/12/29 10:53:58;;;;;;;1.00;0.90;;;11.60;96.50;;;;;;5054568;28;20428;-95
2023/12/29 10:56:24;;;;;;;1.00;0.90;;;11.50;96.10;;;;;;5038629;28;20529;-96
2023/12/29 10:59:14;;;;;;;1.10;1.00;;;11.40;96.40;;;;;;5049476;28;20423;-96
2023/12/29 11:01:42;;;;;;;0.90;0.80;;;11.30;96.80;;;;;;5035472;28;20240;-96
2023/12/29 11:04:09;;;;;;;1.30;1.20;;;11.20;96.90;;;;;;5046898;28;20419;-96
2023/12/29 11:06:48;;;;;;;1.20;1.10;;;11.20;97.10;;;;;;5048589;28;20467;-96
2023/12/29 11:09:32;;;;;;;1.00;1.00;;;11.20;97.30;;;;;;5054445;28;20435;-96
2023/12/29 11:12:05;;;;;;;22.20;9.67;;;11.20;97.00;;;;;;5052212;28;20469;-96
2023/12/29 11:14:32;;;;;;;1.10;1.00;;;11.30;97.20;;;;;;5062827;23;20428;-87
2023/12/29 11:17:00;;;;;;;1.10;1.00;;;11.30;97.20;;;;;;5012462;28;20519;-89
2023/12/29 11:19:26;;;;;;;1.53;1.10;;;11.20;97.20;;;;;;5023963;28;20427;-89
2023/12/29 11:21:54;;;;;;;1.60;1.50;;;11.20;97.30;;;;;;5015846;28;20412;-88
2023/12/29 11:24:20;;;;;;;0.90;0.80;;;11.20;97.20;;;;;;5017318;28;20423;-89
2023/12/29 11:26:46;;;;;;;1.10;1.00;;;11.20;97.20;;;;;;5013525;28;20472;-88
2023/12/29 11:29:12;;;;;;;2.13;1.97;;;11.20;97.20;;;;;;5021001;28;20185;-89
2023/12/29 11:31:38;;;;;;;1.10;1.00;;;11.20;97.30;;;;;;5015985;28;20184;-89
2023/12/29 11:34:15;;;;;;;1.23;1.13;;;11.20;97.20;;;;;;5021400;28;20432;-89
2023/12/29 11:36:45;;;;;;;1.00;0.90;;;11.20;97.30;;;;;;5012924;28;20459;-88
2023/12/29 11:39:38;;;;;;;2.60;1.00;;;11.20;97.30;;;;;;5015462;28;20459;-88
2023/12/29 11:42:17;;;;;;;0.93;0.83;;;11.10;97.30;;;;;;5027524;28;20494;-89
2023/12/29 11:44:45;;;;;;;1.00;0.90;;;11.10;97.30;;;;;;5019017;28;20948;-85
2023/12/29 11:47:37;;;;;;;1.20;1.10;;;11.10;97.30;;;;;;5019534;28;20459;-90
2023/12/29 11:50:06;;;;;;;1.00;0.90;;;11.10;97.30;;;;;;5023076;28;20416;-88
2023/12/29 11:52:39;;;;;;;0.90;0.80;;;11.10;97.30;;;;;;5030542;28;20411;-87
2023/12/29 11:55:08;;;;;;;2.60;1.70;;;11.10;97.30;;;;;;5015151;28;20440;-88
2023/12/29 11:57:36;;;;;;;1.00;0.90;;;11.10;97.30;;;;;;5021147;28;20442;-88
2023/12/29 12:00:05;;;;;;;3.60;1.00;;;11.10;97.30;;;;;;5018240;28;20423;-88
2023/12/29 12:02:31;;;;;;;1.10;1.00;;;11.10;97.30;;;;;;5025892;28;20415;-87
2023/12/29 12:04:56;;;;;;;1.10;1.00;;;11.10;97.30;;;;;;5016044;28;20456;-87
2023/12/29 12:07:22;;;;;;;1.30;1.20;;;11.10;97.30;;;;;;5017908;28;20206;-87
2023/12/29 12:09:52;;;;;;;1.30;1.20;;;11.10;97.30;;;;;;5018034;28;20184;-88
2023/12/29 12:12:38;;;;;;;1.10;1.10;;;11.00;97.30;;;;;;5013914;28;20204;-88
2023/12/29 12:15:24;;;;;;;1.00;0.90;;;11.00;97.30;;;;;;5011954;28;20518;-88
2023/12/29 12:17:50;;;;;;;1.83;1.73;;;10.90;97.30;;;;;;5005858;28;20432;-89
2023/12/29 12:20:16;;;;;;;1.47;1.43;;;10.80;97.30;;;;;;5010865;28;20942;-89
2023/12/29 12:22:43;;;;;;;0.93;0.93;;;10.80;97.30;;;;;;5008572;28;20460;-89
2023/12/29 12:25:11;;;;;;;1.00;0.90;;;10.90;97.30;;;;;;5011378;28;20582;-88
2023/12/29 12:27:38;;;;;;;1.80;1.70;;;10.90;97.30;;;;;;5011861;28;21009;-88
2023/12/29 12:30:06;;;;;;;1.70;1.43;;;11.00;97.30;;;;;;5011366;28;20950;-89
2023/12/29 12:32:32;;;;;;;1.33;1.07;;;11.00;97.30;;;;;;5012700;28;20966;-89
2023/12/29 12:34:57;;;;;;;1.10;1.00;;;11.10;97.30;;;;;;5010861;28;20456;-89
2023/12/29 12:37:25;;;;;;;1.20;1.10;;;11.10;97.30;;;;;;5010750;28;20426;-88
2023/12/29 12:39:51;;;;;;;1.17;1.07;;;11.10;97.30;;;;;;5014212;28;20181;-86
2023/12/29 12:42:17;;;;;;;1.10;1.00;;;11.20;97.30;;;;;;5008383;28;20419;-89
2023/12/29 12:45:04;;;;;;;1.40;1.30;;;11.20;97.30;;;;;;5012870;28;20474;-89
2023/12/29 12:47:44;;;;;;;1.00;0.90;;;11.20;97.30;;;;;;5010064;28;20463;-89
2023/12/29 12:50:13;;;;;;;2.00;1.63;;;11.20;97.30;;;;;;5011331;28;20432;-87
2023/12/29 12:52:40;;;;;;;1.37;1.27;;;11.20;97.30;;;;;;5008130;28;20793;-89
2023/12/29 12:55:07;;;;;;;1.10;1.00;;;11.20;97.30;;;;;;5009779;28;20498;-89
2023/12/29 12:57:33;;;;;;;0.97;0.87;;;11.20;97.30;;;;;;5009494;28;20424;-89
2023/12/29 13:00:00;;;;;;;1.10;1.00;;;11.20;97.30;;;;;;5009035;28;20665;-89
2023/12/29 13:02:28;;;;;;;2.23;2.07;;;11.20;97.30;;;;;;5009004;28;20696;-90
2023/12/29 13:04:54;;;;;;;3.93;3.10;;;11.20;97.30;;;;;;5009048;28;20964;-89
2023/12/29 13:07:20;;;;;;;1.20;1.10;;;11.20;97.30;;;;;;5008433;28;20468;-88
2023/12/29 13:09:48;;;;;;;0.90;0.80;;;11.30;97.30;;;;;;5008610;28;20416;-89
2023/12/29 13:12:15;;;;;;;1.30;1.20;;;11.30;97.30;;;;;;5008513;28;20182;-87
2023/12/29 13:14:41;;;;;;;1.20;1.00;;;11.30;97.30;;;;;;5009704;28;20459;-88
2023/12/29 13:17:08;;;;;;;1.37;1.30;;;11.20;97.30;;;;;;5011305;28;20443;-89
2023/12/29 13:19:34;;;;;;;2.17;1.23;;;11.20;97.30;;;;;;5010785;28;20420;-90
2023/12/29 13:22:00;;;;;;;0.90;0.80;;;11.20;97.30;;;;;;5009437;28;20802;-90
2023/12/29 13:24:26;;;;;;;0.90;0.80;;;11.20;97.30;;;;;;5011689;28;20476;-88
2023/12/29 13:26:56;;;;;;;0.90;0.80;;;11.20;97.30;;;;;;5010035;28;20506;-88
2023/12/29 13:29:29;;;;;;;1.20;1.10;;;11.20;97.30;;;;;;5008601;28;20180;-88
2023/12/29 13:32:00;;;;;;;3.50;0.90;;;11.20;97.30;;;;;;5015139;28;20570;-89
2023/12/29 13:34:50;;;;;;;1.00;0.90;;;11.20;97.30;;;;;;5009482;28;20416;-88
2023/12/29 13:37:34;;;;;;;1.60;1.50;;;11.20;97.30;;;;;;5008917;28;20960;-89
2023/12/29 13:40:10;;;;;;;1.27;1.17;;;11.20;97.30;;;;;;5009234;28;20490;-89
2023/12/29 13:42:37;;;;;;;2.30;1.47;;;11.20;97.30;;;;;;5010570;28;20432;-89
2023/12/29 13:45:04;;;;;;;1.63;1.37;;;11.20;97.30;;;;;;5009624;28;20443;-89
2023/12/29 13:47:31;;;;;;;0.90;0.80;;;11.20;97.30;;;;;;5010817;28;20455;-88
2023/12/29 13:49:56;;;;;;;1.10;1.00;;;11.20;97.30;;;;;;5008480;28;20420;-89
2023/12/29 13:52:22;;;;;;;1.00;0.90;;;11.20;97.30;;;;;;5008905;28;20941;-89
2023/12/29 13:54:48;;;;;;;1.20;1.10;;;11.20;97.30;;;;;;5009225;28;20193;-89
2023/12/29 13:57:15;;;;;;;1.10;1.03;;;11.20;97.30;;;;;;5008689;28;20220;-89
2023/12/29 13:59:41;;;;;;;1.33;1.23;;;11.20;97.30;;;;;;5007524;28;20459;-87
2023/12/29 14:02:22;;;;;;;1.33;1.23;;;11.20;97.30;;;;;;5009433;28;20455;-84
2023/12/29 14:04:48;;;;;;;0.93;0.83;;;11.20;97.30;;;;;;5018549;28;20197;-88
2023/12/29 14:07:14;;;;;;;1.40;1.30;;;11.20;97.30;;;;;;5009085;28;20996;-88
2023/12/29 14:09:40;;;;;;;1.00;0.90;;;11.20;97.30;;;;;;5024860;28;20662;-88
2023/12/29 14:12:06;;;;;;;1.00;0.90;;;11.20;97.30;;;;;;5026559;28;20459;-88
2023/12/29 14:14:31;;;;;;;1.10;1.00;;;11.20;97.30;;;;;;5017772;28;20595;-88
2023/12/29 14:16:57;;;;;;;1.43;1.10;;;11.20;97.30;;;;;;5014791;28;20662;-88
2023/12/29 14:19:23;;;;;;;1.10;1.00;;;11.20;97.30;;;;;;5013770;28;20226;-89
2023/12/29 14:21:55;;;;;;;1.73;1.63;;;11.20;97.30;;;;;;5018450;28;20583;-88
2023/12/29 14:24:21;;;;;;;0.90;0.80;;;11.20;97.30;;;;;;5007653;28;20188;-89
2023/12/29 14:26:52;;;;;;;4.20;1.73;;;11.20;97.30;;;;;;5015662;28;20475;-88
2023/12/29 14:29:18;;;;;;;1.47;1.37;;;11.20;97.30;;;;;;5013071;28;20200;-89
2023/12/29 14:31:44;;;;;;;0.80;0.70;;;11.30;97.30;;;;;;5015526;28;20847;-88
2023/12/29 14:34:11;;;;;;;1.67;1.57;;;11.20;97.30;;;;;;5011280;28;20173;-89
2023/12/29 14:36:39;;;;;;;1.10;1.00;;;11.20;97.30;;;;;;5009466;28;20443;-88
2023/12/29 14:39:06;;;;;;;1.03;0.93;;;11.20;97.30;;;;;;5017192;28;20431;-88
2023/12/29 14:41:32;;;;;;;3.43;1.13;;;11.20;97.30;;;;;;5019893;28;20507;-88
2023/12/29 14:43:57;;;;;;;1.00;0.90;;;11.10;97.30;;;;;;5009452;28;20436;-89
2023/12/29 14:46:23;;;;;;;1.10;1.00;;;11.20;97.30;;;;;;5004869;28;20866;-88
2023/12/29 14:48:49;;;;;;;1.23;1.13;;;11.10;97.30;;;;;;5019334;28;20177;-89
2023/12/29 14:51:15;;;;;;;1.63;1.00;;;11.10;97.30;;;;;;5011974;28;20173;-89
2023/12/29 14:53:47;;;;;;;1.10;1.00;;;11.10;97.30;;;;;;5020846;28;20419;-88
2023/12/29 14:56:14;;;;;;;3.20;2.20;;;11.20;97.30;;;;;;5012236;28;20205;-88
2023/12/29 14:58:40;;;;;;;1.93;1.83;;;11.20;97.30;;;;;;5010840;28;20435;-88
2023/12/29 15:01:06;;;;;;;0.90;0.80;;;11.20;97.30;;;;;;5010517;28;20423;-89
2023/12/29 15:03:32;;;;;;;1.00;0.90;;;11.20;97.30;;;;;;5008647;28;20775;-88
2023/12/29 15:05:58;;;;;;;1.10;1.00;;;11.20;97.30;;;;;;5011991;28;20463;-89
2023/12/29 15:08:24;;;;;;;0.90;0.80;;;11.20;97.30;;;;;;5012729;28;20926;-89
2023/12/29 15:10:50;;;;;;;1.00;0.97;;;11.10;97.30;;;;;;5017445;28;20430;-89
2023/12/29 15:13:16;;;;;;;1.17;1.07;;;11.10;97.30;;;;;;5013086;28;20514;-89
2023/12/29 15:15:42;;;;;;;1.37;1.27;;;11.10;97.30;;;;;;5011808;28;20212;-88
2023/12/29 15:18:07;;;;;;;0.90;0.80;;;11.10;97.30;;;;;;5012937;28;20177;-89
2023/12/29 15:20:33;;;;;;;1.40;1.10;;;11.00;97.30;;;;;;5012089;28;20420;-89
2023/12/29 15:23:00;;;;;;;3.33;1.40;;;11.00;97.30;;;;;;5012510;28;20545;-89
2023/12/29 15:25:27;;;;;;;1.23;1.13;;;11.00;97.30;;;;;;5012067;28;20189;-89
2023/12/29 15:27:52;;;;;;;1.17;1.07;;;10.90;97.30;;;;;;5012224;28;20460;-89
2023/12/29 15:30:18;;;;;;;1.30;1.00;;;10.90;97.30;;;;;;5011948;28;20426;-89
2023/12/29 15:32:44;;;;;;;0.80;0.70;;;10.90;97.30;;;;;;5013626;28;20177;-89
2023/12/29 15:35:09;;;;;;;1.00;0.90;;;10.90;97.30;;;;;;5012168;28;20239;-89
2023/12/29 15:37:35;;;;;;;1.30;1.20;;;10.90;97.30;;;;;;5012410;28;20212;-89
2023/12/29 15:40:02;;;;;;;1.00;0.90;;;10.90;97.30;;;;;;5012587;28;20281;-89
2023/12/29 15:42:27;;;;;;;1.10;1.00;;;10.80;97.30;;;;;;5011128;28;20672;-89
2023/12/29 15:44:53;;;;;;;1.00;0.90;;;10.90;97.30;;;;;;5011962;28;20440;-89
2023/12/29 15:47:18;;;;;;;1.57;1.47;;;10.90;97.30;;;;;;5012300;28;20585;-89
2023/12/29 15:49:44;;;;;;;2.10;1.20;;;10.90;97.30;;;;;;5019832;28;20230;-89
2023/12/29 15:52:09;;;;;;;0.90;0.80;;;10.90;97.30;;;;;;5011938;28;20177;-86
2023/12/29 15:54:35;;;;;;;4.10;1.50;;;11.00;97.30;;;;;;5013306;28;20238;-89
2023/12/29 15:57:03;;;;;;;1.30;1.20;;;11.00;97.30;;;;;;5012288;28;20275;-89
2023/12/29 15:59:28;;;;;;;1.53;1.50;;;11.00;97.30;;;;;;5012049;28;20228;-89
2023/12/29 16:01:53;;;;;;;1.00;0.90;;;11.00;97.30;;;;;;5011646;28;20985;-89
2023/12/29 16:04:19;;;;;;;1.03;0.93;;;11.00;97.30;;;;;;5011900;28;20440;-89
2023/12/29 16:06:44;;;;;;;1.00;0.90;;;11.00;97.30;;;;;;5011949;28;20279;-89
2023/12/29 16:09:10;;;;;;;0.97;0.87;;;11.00;97.30;;;;;;5013162;28;20184;-89
2023/12/29 16:11:36;;;;;;;1.00;0.90;;;11.00;97.30;;;;;;5011603;28;20256;-89
2023/12/29 16:14:02;;;;;;;1.37;1.27;;;11.00;97.30;;;;;;5011813;28;20613;-89
2023/12/29 16:16:30;;;;;;;0.87;0.77;;;11.00;97.30;;;;;;5009660;28;20479;-89
2023/12/29 16:18:57;;;;;;;1.43;1.33;;;11.00;97.30;;;;;;5012836;28;20452;-89
2023/12/29 16:21:22;;;;;;;1.53;1.43;;;11.00;97.30;;;;;;5012256;28;20442;-89
2023/12/29 16:23:48;;;;;;;1.30;1.20;;;11.00;97.30;;;;;;5011088;28;20945;-88
2023/12/29 16:26:13;;;;;;;0.90;0.80;;;11.00;97.30;;;;;;5010916;28;20702;-88
2023/12/29 16:28:40;;;;;;;0.90;0.80;;;11.00;97.30;;;;;;5010711;28;20173;-88
2023/12/29 16:31:07;;;;;;;0.90;0.80;;;11.00;97.30;;;;;;5010447;28;20178;-88
2023/12/29 16:33:34;;;;;;;1.10;1.00;;;11.00;97.30;;;;;;5016974;28;20535;-88
2023/12/29 16:36:00;;;;;;;1.10;1.00;;;11.00;97.30;;;;;;5011700;28;20527;-89
2023/12/29 16:38:26;;;;;;;1.07;0.97;;;11.00;97.30;;;;;;5010782;28;20416;-89
2023/12/29 16:40:52;;;;;;;1.10;1.00;;;11.00;97.30;;;;;;5010829;28;20953;-89
2023/12/29 16:43:18;;;;;;;2.90;2.73;;;11.00;97.30;;;;;;5011341;28;20416;-89
2023/12/29 16:45:43;;;;;;;5.03;2.80;;;11.00;97.30;;;;;;5021727;28;20436;-90
2023/12/29 16:48:09;;;;;;;4.80;2.07;;;11.00;97.30;;;;;;5028098;28;20192;-89
2023/12/29 16:50:34;;;;;;;6.00;2.00;;;11.00;97.30;;;;;;5027382;28;20651;-89
2023/12/29 16:53:00;;;;;;;1.33;1.23;;;11.00;97.30;;;;;;5022855;28;20203;-88
2023/12/29 16:55:25;;;;;;;12.23;1.43;;;11.00;97.30;;;;;;5023745;28;20201;-89
2023/12/29 16:57:51;;;;;;;2.73;1.63;;;11.00;97.30;;;;;;5023297;28;20185;-89
2023/12/29 17:00:17;;;;;;;1.43;1.03;;;11.00;97.30;;;;;;5022264;28;20189;-89
2023/12/29 17:02:42;;;;;;;0.87;0.77;;;10.90;97.30;;;;;;5022380;28;20196;-90
2023/12/29 17:05:08;;;;;;;1.10;1.00;;;10.90;97.30;;;;;;5022618;28;20444;-89
2023/12/29 17:07:34;;;;;;;3.30;3.10;;;10.90;97.30;;;;;;5027630;28;20232;-93
2023/12/29 17:09:59;;;;;;;1.43;1.33;;;10.90;97.30;;;;;;5028113;28;20435;-89
2023/12/29 17:12:25;;;;;;;1.10;1.00;;;10.90;97.30;;;;;;5025057;28;20235;-88
2023/12/29 17:14:50;;;;;;;1.27;1.10;;;10.90;97.30;;;;;;5018238;28;20229;-90
2023/12/29 17:17:16;;;;;;;2.83;1.27;;;10.90;97.30;;;;;;5022318;28;20224;-88
2023/12/29 17:19:42;;;;;;;1.40;1.30;;;11.00;97.30;;;;;;5026004;28;20196;-89
2023/12/29 17:22:07;;;;;;;1.63;1.27;;;11.00;97.30;;;;;;5017859;28;20197;-88
2023/12/29 17:24:38;;;;;;;1.63;1.37;;;11.00;97.30;;;;;;5010196;28;20243;-90
2023/12/29 17:27:04;;;;;;;1.23;1.23;;;11.00;97.30;;;;;;5011364;28;20213;-89
2023/12/29 17:29:30;;;;;;;1.93;1.80;;;10.90;97.30;;;;;;5010435;28;20423;-89
2023/12/29 17:31:55;;;;;;;3.77;2.10;;;11.00;97.30;;;;;;5010541;28;20424;-89
2023/12/29 17:34:21;;;;;;;11.37;2.60;;;11.00;97.30;;;;;;5010320;28;20173;-89
2023/12/29 17:36:46;;;;;;;6.23;1.50;;;11.00;97.30;;;;;;5011385;28;20555;-88
2023/12/29 17:39:12;;;;;;;2.37;1.60;;;11.00;97.30;;;;;;5011340;28;20351;-90
2023/12/29 17:41:38;;;;;;;1.07;0.97;;;11.00;97.30;;;;;;5010768;28;20181;-89
2023/12/29 17:44:03;;;;;;;0.90;0.80;;;11.00;97.30;;;;;;5011453;28;20272;-90
2023/12/29 17:46:29;;;;;;;1.30;1.20;;;11.00;97.30;;;;;;5009674;28;20243;-89
2023/12/29 17:48:55;;;;;;;3.37;1.80;;;11.00;97.30;;;;;;5010808;28;20832;-88
2023/12/29 17:51:24;;;;;;;0.93;0.83;;;11.00;97.30;;;;;;5010923;28;20181;-89
2023/12/29 17:53:50;;;;;;;1.00;0.90;;;11.00;97.30;;;;;;5011190;28;20576;-88
2023/12/29 17:56:15;;;;;;;0.90;0.80;;;11.00;97.30;;;;;;5010252;28;20566;-89